Time;durP1;ratioP1;P1;durP2;ratioP2;P2;SDS_P1;SDS_P2;PMS_P1;PMS_P2;Temp;Humidity;BMP_temperature;BMP_pressure;BME280_temperature;BME280_humidity;BME280_pressure;Samples;Min_cycle;Max_cycle;Signal;HPM_P1;HPM_P2
2021/12/07 00:00:29;;;;;;;25.20;14.80;;;2.00;99.90;;;;;;5008302;28;20192;-79
2021/12/07 00:03:14;;;;;;;27.20;14.55;;;2.00;99.90;;;;;;4999620;28;20049;-79
2021/12/07 00:06:00;;;;;;;;;;;2.00;99.90;;;;;;5009800;28;20100;-79
2021/12/07 00:08:46;;;;;;;27.27;14.13;;;2.00;99.90;;;;;;4995128;28;19928;-78
2021/12/07 00:11:33;;;;;;;22.35;12.90;;;2.00;99.90;;;;;;4974487;28;20049;-77
2021/12/07 00:14:24;;;;;;;24.05;13.35;;;2.10;99.90;;;;;;4992215;28;20561;-78
2021/12/07 00:17:10;;;;;;;20.75;12.00;;;2.10;99.90;;;;;;5008185;28;20399;-78
2021/12/07 00:19:56;;;;;;;24.52;14.43;;;2.00;99.90;;;;;;4994278;28;20388;-77
2021/12/07 00:22:44;;;;;;;21.00;11.82;;;2.00;99.90;;;;;;4992008;28;20049;-77
2021/12/07 00:25:30;;;;;;;27.95;14.18;;;2.00;99.90;;;;;;5008525;28;20416;-77
2021/12/07 00:28:15;;;;;;;23.08;11.70;;;2.00;99.90;;;;;;5009542;28;20048;-76
2021/12/07 00:31:10;;;;;;;;;;;2.00;99.90;;;;;;5008011;28;20463;-78
2021/12/07 00:34:14;;;;;;;27.50;13.68;;;2.00;99.90;;;;;;5000068;28;19927;-78
2021/12/07 00:37:00;;;;;;;20.48;11.95;;;2.00;99.90;;;;;;5004436;28;20048;-77
2021/12/07 00:39:45;;;;;;;21.50;11.48;;;2.00;99.90;;;;;;4989889;28;20100;-76
2021/12/07 00:42:30;;;;;;;;;;;2.00;99.90;;;;;;4974844;28;20053;-77
2021/12/07 00:45:21;;;;;;;26.60;12.37;;;2.00;99.90;;;;;;4994002;28;19971;-76
2021/12/07 00:48:07;;;;;;;23.00;13.55;;;2.00;99.90;;;;;;5005901;28;20073;-77
2021/12/07 00:50:56;;;;;;;26.30;13.82;;;2.10;99.90;;;;;;4993137;28;20061;-81
2021/12/07 00:53:42;;;;;;;23.95;13.65;;;2.10;99.90;;;;;;5005655;28;20519;-79
2021/12/07 00:56:27;;;;;;;21.23;12.48;;;2.10;99.90;;;;;;5008981;28;20503;-78
2021/12/07 00:59:13;;;;;;;26.10;13.82;;;2.10;99.90;;;;;;5007188;28;20212;-76
2021/12/07 01:01:59;;;;;;;29.95;15.75;;;2.10;99.90;;;;;;5006433;28;20076;-78
2021/12/07 01:04:51;;;;;;;25.25;14.65;;;2.10;99.90;;;;;;4996235;28;20061;-79
2021/12/07 01:26:20;;;;;;;;;;;2.00;99.90;;;;;;4993488;28;20111;-78
2021/12/07 01:29:06;;;;;;;26.83;15.18;;;1.90;99.90;;;;;;5008654;28;20343;-78
2021/12/07 01:32:08;;;;;;;31.33;18.10;;;1.90;99.90;;;;;;5006363;28;20049;-79
2021/12/07 01:40:52;;;;;;;40.08;21.15;;;1.60;99.90;;;;;;5006391;28;20096;-78
2021/12/07 01:46:49;;;;;;;34.60;18.85;;;1.50;99.90;;;;;;4995608;28;20176;-79
2021/12/07 02:01:24;;;;;;;30.48;17.77;;;1.50;99.90;;;;;;5003816;28;20116;-78
2021/12/07 02:04:09;;;;;;;;;;;1.40;99.90;;;;;;4992826;28;20068;-79
2021/12/07 02:06:54;;;;;;;39.70;20.63;;;1.40;99.90;;;;;;4983377;28;20417;-80
2021/12/07 02:09:44;;;;;;;42.53;22.05;;;1.40;99.90;;;;;;4972435;28;20289;-80
2021/12/07 02:12:41;;;;;;;35.85;20.80;;;1.40;99.90;;;;;;4972928;28;20056;-79
2021/12/07 02:15:29;;;;;;;39.78;22.70;;;1.40;99.90;;;;;;5001696;28;20057;-79
2021/12/07 02:18:14;;;;;;;42.10;23.00;;;1.40;99.90;;;;;;5005712;28;20152;-78
2021/12/07 02:21:20;;;;;;;40.08;21.27;;;1.40;99.90;;;;;;5006808;28;20547;-79
2021/12/07 02:24:10;;;;;;;35.65;19.02;;;1.40;99.90;;;;;;4991964;28;20566;-79
2021/12/07 02:26:56;;;;;;;35.80;18.98;;;1.40;99.90;;;;;;5002873;28;20049;-78
2021/12/07 02:29:41;;;;;;;40.28;20.08;;;1.40;99.90;;;;;;5005659;28;20049;-81
2021/12/07 02:32:27;;;;;;;33.35;18.50;;;1.40;99.90;;;;;;5005395;28;20387;-79
2021/12/07 02:35:21;;;;;;;37.70;21.95;;;1.40;99.90;;;;;;5005370;28;20188;-79
2021/12/07 02:38:09;;;;;;;;;;;1.40;99.90;;;;;;5003631;28;20053;-79
2021/12/07 02:40:56;;;;;;;35.83;20.50;;;1.40;99.90;;;;;;4992305;28;19941;-80
2021/12/07 02:43:41;;;;;;;;;;;1.40;99.90;;;;;;5008110;28;20056;-79
2021/12/07 02:46:27;;;;;;;34.92;17.25;;;1.40;99.90;;;;;;5005629;28;20315;-78
2021/12/07 02:49:15;;;;;;;34.03;19.27;;;1.40;99.90;;;;;;4981550;28;20191;-79
2021/12/07 02:52:00;;;;;;;;;;;1.40;99.90;;;;;;5042396;22;20130;-69
2021/12/07 02:54:49;;;;;;;32.50;18.80;;;1.40;99.90;;;;;;5021515;28;20335;-70
2021/12/07 02:57:43;;;;;;;35.88;19.88;;;1.50;99.90;;;;;;5019786;28;20052;-70
2021/12/07 03:00:37;;;;;;;33.10;19.20;;;1.50;99.90;;;;;;5024426;28;20071;-70
2021/12/07 03:03:25;;;;;;;39.17;20.52;;;1.40;99.90;;;;;;5012899;28;20048;-69
2021/12/07 03:06:22;;;;;;;35.20;18.88;;;1.50;99.90;;;;;;5022003;28;20056;-69
2021/12/07 03:28:05;;;;;;;37.70;20.35;;;1.40;99.90;;;;;;5028001;28;20056;-69
2021/12/07 03:30:52;;;;;;;36.90;19.88;;;1.50;99.90;;;;;;5015904;28;20420;-69
2021/12/07 03:33:38;;;;;;;38.60;19.27;;;1.60;99.90;;;;;;5030748;28;20052;-69
2021/12/07 03:36:26;;;;;;;36.45;19.42;;;1.60;99.90;;;;;;5028962;28;20194;-68
2021/12/07 03:39:14;;;;;;;36.70;19.98;;;1.60;99.90;;;;;;5028886;28;20137;-68
2021/12/07 03:41:59;;;;;;;30.88;17.27;;;1.60;99.90;;;;;;5044745;28;20452;-67
2021/12/07 03:44:44;;;;;;;36.00;18.83;;;1.50;99.90;;;;;;5028697;28;20107;-68
2021/12/07 03:47:30;;;;;;;;;;;1.60;99.90;;;;;;5029275;28;20083;-68
2021/12/07 03:50:15;;;;;;;36.63;19.07;;;1.60;99.90;;;;;;5028475;28;20179;-69
2021/12/07 03:53:02;;;;;;;29.92;16.55;;;1.60;99.90;;;;;;5030177;28;20064;-69
2021/12/07 03:55:48;;;;;;;30.15;16.40;;;1.60;99.90;;;;;;5023347;28;20055;-69
2021/12/07 03:58:35;;;;;;;29.75;16.58;;;1.60;99.90;;;;;;5026383;28;20109;-67
2021/12/07 04:01:23;;;;;;;36.38;19.45;;;1.60;99.90;;;;;;5036953;28;20063;-68
2021/12/07 04:04:10;;;;;;;41.47;21.50;;;1.70;99.90;;;;;;5027902;28;20693;-68
2021/12/07 04:06:56;;;;;;;39.53;20.42;;;1.70;99.90;;;;;;5026983;28;20127;-68
2021/12/07 04:09:41;;;;;;;33.28;18.30;;;1.70;99.90;;;;;;5029156;28;20051;-69
2021/12/07 04:12:27;;;;;;;29.98;16.25;;;1.60;99.90;;;;;;5027101;28;20118;-68
2021/12/07 04:15:15;;;;;;;34.22;17.40;;;1.60;99.90;;;;;;5043251;28;20052;-68
2021/12/07 04:18:02;;;;;;;32.03;17.90;;;1.60;99.90;;;;;;5028317;28;20076;-68
2021/12/07 04:20:47;;;;;;;36.58;19.08;;;1.70;99.90;;;;;;5043648;28;20048;-69
2021/12/07 04:23:34;;;;;;;42.78;21.33;;;1.70;99.90;;;;;;5026470;28;20593;-68
2021/12/07 04:26:21;;;;;;;40.03;19.20;;;1.70;99.90;;;;;;5056823;28;20031;-69
2021/12/07 04:29:06;;;;;;;45.63;20.67;;;1.70;99.90;;;;;;5028009;28;20649;-68
2021/12/07 04:31:52;;;;;;;44.05;20.88;;;1.70;99.90;;;;;;5026973;28;20080;-68
2021/12/07 04:34:38;;;;;;;51.13;24.00;;;1.80;99.90;;;;;;5029488;28;20048;-68
2021/12/07 04:37:24;;;;;;;60.63;30.00;;;1.70;99.90;;;;;;5036607;28;20512;-70
2021/12/07 04:40:11;;;;;;;;;;;1.80;99.90;;;;;;5009915;28;20079;-69
2021/12/07 04:42:58;;;;;;;54.97;26.30;;;1.80;99.90;;;;;;5022396;28;20442;-69
2021/12/07 05:00:14;;;;;;;61.85;25.58;;;1.80;99.90;;;;;;5041519;28;20598;-69
2021/12/07 05:03:04;;;;;;;64.75;27.20;;;1.90;99.90;;;;;;5041905;28;20134;-69
2021/12/07 05:05:52;;;;;;;59.75;27.52;;;1.90;99.90;;;;;;5025911;28;20067;-70
2021/12/07 05:08:44;;;;;;;66.35;28.13;;;1.80;99.90;;;;;;5041847;28;20171;-70
2021/12/07 05:11:46;;;;;;;61.83;26.13;;;1.80;99.90;;;;;;5040232;28;20059;-69
2021/12/07 05:14:35;;;;;;;42.15;21.73;;;1.80;99.90;;;;;;5039895;28;20183;-70
2021/12/07 05:17:39;;;;;;;46.92;21.55;;;1.80;99.90;;;;;;5024589;28;20056;-70
2021/12/07 05:39:05;;;;;;;54.33;24.73;;;1.40;99.90;;;;;;4979477;28;20106;-70
2021/12/07 05:41:51;;;;;;;50.83;23.58;;;1.40;99.90;;;;;;4991811;28;20195;-68
2021/12/07 05:44:36;;;;;;;54.08;24.90;;;1.40;99.90;;;;;;5019447;28;20060;-70
2021/12/07 05:47:23;;;;;;;60.08;26.63;;;1.40;99.90;;;;;;5037740;28;20059;-71
2021/12/07 05:50:11;;;;;;;60.55;27.58;;;1.50;99.90;;;;;;5024521;28;20134;-71
2021/12/07 05:52:57;;;;;;;61.50;27.90;;;1.50;99.90;;;;;;5023509;28;20114;-70
2021/12/07 05:55:42;;;;;;;75.28;28.30;;;1.60;99.90;;;;;;5047671;28;20527;-70
2021/12/07 05:58:31;;;;;;;80.93;30.88;;;1.60;99.90;;;;;;5023769;28;20052;-70
2021/12/07 06:01:16;;;;;;;76.47;30.48;;;1.50;99.90;;;;;;5010957;28;20476;-70
2021/12/07 06:04:02;;;;;;;77.78;30.58;;;1.40;99.90;;;;;;5016975;28;20071;-69
2021/12/07 06:06:48;;;;;;;64.28;26.38;;;1.40;99.90;;;;;;5016456;28;20103;-69
2021/12/07 06:09:34;;;;;;;61.85;25.33;;;1.40;99.90;;;;;;5016987;28;20064;-70
2021/12/07 06:12:19;;;;;;;54.55;23.13;;;1.40;99.90;;;;;;5019142;28;20448;-69
2021/12/07 06:15:05;;;;;;;67.75;25.35;;;1.30;99.90;;;;;;5033782;28;20071;-70
2021/12/07 06:17:53;;;;;;;65.63;25.80;;;1.30;99.90;;;;;;5017978;28;20106;-69
2021/12/07 06:20:40;;;;;;;79.65;29.67;;;1.30;99.90;;;;;;5036604;28;20071;-71
2021/12/07 06:23:28;;;;;;;72.20;27.05;;;1.30;99.90;;;;;;5023249;28;20516;-71
2021/12/07 06:26:15;;;;;;;70.80;26.67;;;1.20;99.90;;;;;;5043148;28;20044;-69
2021/12/07 06:29:00;;;;;;;69.15;27.73;;;1.20;99.90;;;;;;5031566;28;20113;-70
2021/12/07 06:31:46;;;;;;;74.57;26.17;;;1.10;99.90;;;;;;5033724;28;20519;-71
2021/12/07 06:34:32;;;;;;;53.35;22.40;;;1.10;99.90;;;;;;5024395;28;20059;-71
2021/12/07 06:37:18;;;;;;;49.67;19.95;;;1.10;99.90;;;;;;5038055;28;20048;-71
2021/12/07 06:40:11;;;;;;;58.40;22.20;;;1.10;99.90;;;;;;5024561;28;20052;-72
2021/12/07 06:42:59;;;;;;;52.10;20.70;;;1.00;99.90;;;;;;5024089;28;20427;-72
2021/12/07 06:45:45;;;;;;;56.20;23.25;;;1.10;99.90;;;;;;5038878;28;20051;-71
2021/12/07 06:48:32;;;;;;;54.83;20.13;;;1.10;99.90;;;;;;5022111;28;20052;-72
2021/12/07 06:51:18;;;;;;;96.28;30.00;;;1.00;99.90;;;;;;5002873;28;20187;-72
2021/12/07 06:54:03;;;;;;;74.00;26.85;;;1.00;99.90;;;;;;5028443;28;20083;-72
2021/12/07 06:56:49;;;;;;;;;;;1.10;99.90;;;;;;5032011;28;20194;-72
2021/12/07 06:59:34;;;;;;;71.90;25.02;;;1.10;99.90;;;;;;5022768;28;20086;-71
2021/12/07 07:02:20;;;;;;;103.70;33.72;;;1.10;99.90;;;;;;5037366;28;20052;-72
2021/12/07 07:05:06;;;;;;;110.15;32.30;;;1.00;99.90;;;;;;5020791;28;20392;-72
2021/12/07 07:07:52;;;;;;;117.70;30.65;;;1.10;99.90;;;;;;5006944;28;20401;-72
2021/12/07 07:10:37;;;;;;;195.52;38.17;;;1.10;99.90;;;;;;5037759;28;20063;-72
2021/12/07 07:13:23;;;;;;;359.85;49.47;;;1.20;99.90;;;;;;5038587;28;20106;-72
2021/12/07 07:16:09;;;;;;;441.35;61.63;;;1.10;99.90;;;;;;5038205;28;20449;-72
2021/12/07 07:18:55;;;;;;;375.98;54.58;;;1.10;99.90;;;;;;5038359;28;20127;-72
2021/12/07 07:21:41;;;;;;;534.88;66.82;;;1.10;99.90;;;;;;5009393;28;20052;-72
2021/12/07 07:24:27;;;;;;;621.35;76.47;;;1.10;99.90;;;;;;5022290;28;20068;-73
2021/12/07 07:27:13;;;;;;;662.35;80.28;;;1.10;99.90;;;;;;5018017;28;20421;-72
2021/12/07 07:29:58;;;;;;;687.25;80.88;;;1.10;99.90;;;;;;5037713;28;20420;-73
2021/12/07 07:32:45;;;;;;;781.97;90.40;;;1.20;99.90;;;;;;5038492;28;20512;-74
2021/12/07 07:35:31;;;;;;;751.17;89.60;;;1.20;99.90;;;;;;5037933;28;20052;-73
2021/12/07 07:38:17;;;;;;;686.88;82.20;;;1.10;99.90;;;;;;5007146;28;20065;-73
2021/12/07 07:41:03;;;;;;;693.67;80.97;;;1.20;99.90;;;;;;5018081;28;20045;-73
2021/12/07 07:43:48;;;;;;;785.08;98.05;;;1.30;99.90;;;;;;5004568;28;20057;-75
2021/12/07 07:46:35;;;;;;;788.35;92.82;;;1.20;99.90;;;;;;5001875;28;20528;-73
2021/12/07 07:49:21;;;;;;;855.67;105.90;;;1.20;99.90;;;;;;5023294;28;20060;-73
2021/12/07 07:52:07;;;;;;;820.92;111.25;;;1.30;99.90;;;;;;5034294;28;20126;-73
2021/12/07 07:54:53;;;;;;;743.75;93.55;;;1.40;99.90;;;;;;5023843;28;20141;-73
2021/12/07 07:57:39;;;;;;;722.42;92.38;;;1.40;99.90;;;;;;5001770;28;20048;-73
2021/12/07 08:00:24;;;;;;;635.90;82.47;;;1.30;99.90;;;;;;5021542;28;20111;-73
2021/12/07 08:03:09;;;;;;;;;;;1.30;99.90;;;;;;5018722;28;20060;-73
2021/12/07 08:05:55;;;;;;;841.75;111.40;;;1.40;99.90;;;;;;4990402;28;19932;-72
2021/12/07 08:08:44;;;;;;;645.40;79.35;;;1.40;99.90;;;;;;5005069;28;20277;-72
2021/12/07 08:11:31;;;;;;;890.13;114.90;;;1.50;99.90;;;;;;5019634;28;20049;-72
2021/12/07 08:14:17;;;;;;;860.60;103.32;;;1.50;99.90;;;;;;5005006;28;20060;-71
2021/12/07 08:17:04;;;;;;;911.40;110.53;;;1.50;99.90;;;;;;5033284;28;20052;-73
2021/12/07 08:19:50;;;;;;;769.97;99.25;;;1.50;99.90;;;;;;5024376;28;20052;-74
2021/12/07 08:22:35;;;;;;;856.53;112.43;;;1.60;99.90;;;;;;5040015;28;20045;-75
2021/12/07 08:25:21;;;;;;;;;;;1.60;99.90;;;;;;5044382;28;20170;-74
2021/12/07 08:28:07;;;;;;;703.47;90.95;;;1.70;99.90;;;;;;5039926;28;19931;-73
2021/12/07 08:30:53;;;;;;;550.47;80.25;;;1.70;99.90;;;;;;5026010;28;20056;-72
2021/12/07 08:33:38;;;;;;;615.78;82.18;;;1.70;99.90;;;;;;5027712;28;20075;-73
2021/12/07 08:36:24;;;;;;;572.65;80.35;;;1.80;99.90;;;;;;5031855;28;20299;-73
2021/12/07 08:39:09;;;;;;;606.38;83.28;;;1.80;99.90;;;;;;5032507;28;20056;-72
2021/12/07 08:41:55;;;;;;;757.45;93.40;;;1.80;99.90;;;;;;5041264;28;20067;-71
2021/12/07 08:44:40;;;;;;;777.78;98.45;;;1.80;99.90;;;;;;5041794;28;20056;-73
2021/12/07 08:47:25;;;;;;;;;;;1.90;99.90;;;;;;5024628;28;20052;-72
2021/12/07 08:50:29;;;;;;;607.55;80.57;;;2.00;99.90;;;;;;5039951;28;20078;-72
2021/12/07 08:53:17;;;;;;;761.85;100.68;;;1.90;99.90;;;;;;5048358;22;20056;-78
2021/12/07 09:02:16;;;;;;;895.10;116.10;;;1.90;99.90;;;;;;5019841;28;20072;-78
2021/12/07 09:05:02;;;;;;;841.80;113.95;;;2.00;99.90;;;;;;5022041;28;20089;-78
2021/12/07 09:07:47;;;;;;;939.00;117.68;;;2.00;99.90;;;;;;5015071;28;20059;-77
2021/12/07 09:10:32;;;;;;;888.78;123.43;;;2.00;99.90;;;;;;5027868;28;20052;-78
2021/12/07 09:13:20;;;;;;;875.15;123.18;;;2.00;99.90;;;;;;5001168;28;20056;-78
2021/12/07 09:16:06;;;;;;;889.70;121.90;;;2.10;99.90;;;;;;5013803;28;20653;-78
2021/12/07 09:18:52;;;;;;;848.75;119.97;;;2.10;99.90;;;;;;5018866;28;20318;-78
2021/12/07 09:21:38;;;;;;;;;;;2.20;99.90;;;;;;5011392;28;20052;-78
2021/12/07 09:24:25;;;;;;;767.17;105.85;;;2.20;99.90;;;;;;5021143;28;20313;-78
2021/12/07 09:27:10;;;;;;;796.10;120.43;;;2.20;99.90;;;;;;5035425;28;20111;-78
2021/12/07 09:30:03;;;;;;;684.05;108.63;;;2.30;99.90;;;;;;5014635;28;20087;-78
2021/12/07 09:32:48;;;;;;;500.58;92.45;;;2.30;99.90;;;;;;5014510;28;20057;-78
2021/12/07 09:35:34;;;;;;;;;;;2.30;99.90;;;;;;5029612;28;20497;-78
2021/12/07 09:38:20;;;;;;;595.55;95.75;;;2.40;99.90;;;;;;5028064;28;20022;-78
2021/12/07 09:41:08;;;;;;;584.75;100.00;;;2.40;99.90;;;;;;5000467;28;20205;-78
2021/12/07 09:43:54;;;;;;;579.15;97.47;;;2.40;99.90;;;;;;5015235;28;20139;-78
2021/12/07 09:46:41;;;;;;;653.08;103.57;;;2.40;99.90;;;;;;5028579;28;20128;-78
2021/12/07 09:49:26;;;;;;;668.17;104.25;;;2.50;99.90;;;;;;5009842;28;20523;-78
2021/12/07 09:52:11;;;;;;;646.72;109.63;;;2.60;99.90;;;;;;5015552;28;20055;-78
2021/12/07 09:54:57;;;;;;;483.38;91.22;;;2.60;99.90;;;;;;5017480;28;20057;-78
2021/12/07 09:57:43;;;;;;;343.25;78.38;;;2.60;99.90;;;;;;5017753;28;20571;-78
2021/12/07 10:00:28;;;;;;;;;;;2.60;99.90;;;;;;5012696;28;20041;-78
2021/12/07 10:03:15;;;;;;;294.15;70.75;;;2.60;99.90;;;;;;5011794;28;19936;-77
2021/12/07 10:06:03;;;;;;;342.08;77.70;;;2.70;99.90;;;;;;5025942;28;20123;-77
2021/12/07 10:08:48;;;;;;;370.00;78.18;;;2.70;99.90;;;;;;5012225;28;20075;-77
2021/12/07 10:11:34;;;;;;;329.48;76.80;;;2.80;99.90;;;;;;5008571;28;20416;-77
2021/12/07 10:14:21;;;;;;;344.05;74.95;;;2.80;99.90;;;;;;4979134;28;20088;-77
2021/12/07 10:17:07;;;;;;;439.30;88.75;;;2.90;99.90;;;;;;4991308;28;20091;-77
2021/12/07 10:19:52;;;;;;;484.27;96.13;;;2.90;99.90;;;;;;5008680;28;20048;-76
2021/12/07 10:22:40;;;;;;;380.42;87.03;;;2.90;99.90;;;;;;5024865;28;20095;-77
2021/12/07 10:25:28;;;;;;;488.70;95.88;;;3.00;99.90;;;;;;5015405;28;20092;-76
2021/12/07 10:28:37;;;;;;;459.83;94.10;;;3.10;99.90;;;;;;5029768;28;20526;-76
2021/12/07 10:31:35;;;;;;;569.53;102.82;;;3.10;99.90;;;;;;5018376;28;20047;-75
2021/12/07 10:34:24;;;;;;;376.35;84.93;;;3.10;99.90;;;;;;5011013;28;20577;-75
2021/12/07 10:37:16;;;;;;;338.55;81.10;;;3.20;99.90;;;;;;4992195;28;20053;-76
2021/12/07 10:40:02;;;;;;;318.40;77.65;;;3.10;99.90;;;;;;5006497;28;20064;-75
2021/12/07 10:42:48;;;;;;;332.33;82.10;;;3.20;99.90;;;;;;5038193;28;20057;-76
2021/12/07 10:45:34;;;;;;;252.32;66.82;;;3.20;99.90;;;;;;5038948;28;20413;-75
2021/12/07 10:48:22;;;;;;;;;;;3.20;99.90;;;;;;5043311;28;20051;-75
2021/12/07 10:51:11;;;;;;;264.50;66.20;;;3.20;99.90;;;;;;5041421;28;19982;-75
2021/12/07 10:53:56;;;;;;;260.23;66.93;;;3.20;99.90;;;;;;5027166;28;20237;-75
2021/12/07 10:56:41;;;;;;;216.32;59.85;;;3.20;99.90;;;;;;5030978;28;20057;-75
2021/12/07 10:59:26;;;;;;;194.40;54.35;;;3.20;99.90;;;;;;5005865;28;20061;-75
2021/12/07 11:02:15;;;;;;;175.65;51.20;;;3.30;99.90;;;;;;4997705;28;20044;-76
2021/12/07 11:05:08;;;;;;;182.70;50.53;;;3.30;99.90;;;;;;5005697;28;20104;-75
2021/12/07 11:07:54;;;;;;;177.77;52.17;;;3.30;99.90;;;;;;4989980;28;20057;-76
2021/12/07 11:10:45;;;;;;;178.85;56.78;;;3.20;99.90;;;;;;5005707;28;20049;-75
2021/12/07 11:13:35;;;;;;;191.05;55.53;;;3.30;99.90;;;;;;5008733;28;20061;-76
2021/12/07 11:16:22;;;;;;;191.13;55.47;;;3.30;99.90;;;;;;5009129;28;20047;-76
2021/12/07 11:19:21;;;;;;;191.77;57.10;;;3.30;99.90;;;;;;5010700;28;20060;-75
2021/12/07 11:22:06;;;;;;;184.57;56.83;;;3.30;99.90;;;;;;5024469;28;20048;-76
2021/12/07 11:24:53;;;;;;;181.90;58.40;;;3.40;99.90;;;;;;5014065;28;20588;-75
2021/12/07 11:30:51;;;;;;;178.90;56.97;;;3.40;99.90;;;;;;5023152;28;20411;-76
2021/12/07 11:33:37;;;;;;;163.70;56.50;;;3.40;99.90;;;;;;5024092;28;20056;-75
2021/12/07 11:36:25;;;;;;;178.40;60.95;;;3.50;99.90;;;;;;4996201;28;20073;-75
2021/12/07 11:39:32;;;;;;;180.85;56.72;;;3.60;99.90;;;;;;5010062;28;20543;-75
2021/12/07 11:42:20;;;;;;;190.15;59.15;;;3.50;99.90;;;;;;4993897;28;20560;-76
2021/12/07 11:45:16;;;;;;;192.40;64.05;;;3.60;99.90;;;;;;5027150;28;20103;-75
2021/12/07 11:48:05;;;;;;;153.55;54.75;;;3.50;99.90;;;;;;5028572;28;20051;-76
2021/12/07 11:50:51;;;;;;;152.55;56.42;;;3.50;99.90;;;;;;5018361;28;20079;-75
2021/12/07 11:53:36;;;;;;;129.82;49.65;;;3.60;99.90;;;;;;5012004;28;20339;-77
2021/12/07 11:56:22;;;;;;;120.30;48.25;;;3.60;99.90;;;;;;5025077;28;20048;-75
2021/12/07 11:59:08;;;;;;;105.70;43.10;;;3.60;99.90;;;;;;5027004;28;20064;-70
2021/12/07 12:02:00;;;;;;;95.05;35.47;;;3.70;99.90;;;;;;5027300;28;20634;-70
2021/12/07 12:04:47;;;;;;;87.25;36.80;;;3.70;99.90;;;;;;5010764;28;20070;-70
2021/12/07 12:07:32;;;;;;;82.70;32.58;;;3.80;99.90;;;;;;5026573;28;20142;-70
2021/12/07 12:10:18;;;;;;;81.40;34.30;;;3.80;99.90;;;;;;5011047;28;20565;-70
2021/12/07 12:13:50;;;;;;;80.90;35.22;;;3.80;99.90;;;;;;5010752;28;20184;-70
2021/12/07 12:16:52;;;;;;;75.25;32.65;;;3.90;99.90;;;;;;5008042;28;20052;-70
2021/12/07 12:20:03;;;;;;;71.30;29.65;;;3.90;99.90;;;;;;5001613;28;20049;-70
2021/12/07 12:22:57;;;;;;;70.80;31.17;;;3.90;99.90;;;;;;5018226;28;20049;-70
2021/12/07 12:25:43;;;;;;;77.22;33.10;;;3.90;99.90;;;;;;5016716;28;20233;-71
2021/12/07 12:28:36;;;;;;;;;;;3.90;99.90;;;;;;5022271;28;20135;-68
2021/12/07 12:31:50;;;;;;;73.13;32.05;;;3.80;99.90;;;;;;5014543;28;19936;-71
2021/12/07 12:34:48;;;;;;;78.55;38.78;;;3.90;99.90;;;;;;5021118;28;20056;-70
2021/12/07 12:37:35;;;;;;;64.75;29.27;;;3.90;99.90;;;;;;5015738;28;20223;-70
2021/12/07 12:40:28;;;;;;;56.97;27.48;;;4.00;99.90;;;;;;5005856;28;20061;-70
2021/12/07 12:43:15;;;;;;;52.85;26.33;;;4.00;99.90;;;;;;5005894;28;20061;-71
2021/12/07 12:46:01;;;;;;;62.53;26.67;;;4.00;99.90;;;;;;5028473;28;20048;-70
2021/12/07 12:48:50;;;;;;;63.20;28.40;;;4.10;99.90;;;;;;5006257;28;20514;-70
2021/12/07 12:51:50;;;;;;;59.47;25.20;;;4.10;99.90;;;;;;5025788;28;20122;-70
2021/12/07 12:54:43;;;;;;;48.45;23.38;;;4.00;99.90;;;;;;5038402;28;20435;-71
2021/12/07 12:57:29;;;;;;;56.08;23.58;;;4.00;99.90;;;;;;5025281;28;20056;-71
2021/12/07 13:00:14;;;;;;;50.00;26.00;;;4.10;99.90;;;;;;5022743;28;20411;-70
2021/12/07 13:03:14;;;;;;;48.97;25.13;;;4.20;99.90;;;;;;5004260;28;20057;-70
2021/12/07 13:06:01;;;;;;;47.85;20.40;;;4.40;99.90;;;;;;5008849;28;20045;-70
2021/12/07 13:09:00;;;;;;;43.20;22.10;;;4.30;99.90;;;;;;5016929;28;20089;-71
2021/12/07 13:11:50;;;;;;;44.30;20.52;;;4.30;99.90;;;;;;4998471;28;20143;-71
2021/12/07 13:14:38;;;;;;;42.85;18.73;;;4.30;99.90;;;;;;5018134;28;20060;-70
2021/12/07 13:17:39;;;;;;;41.70;19.13;;;4.20;99.90;;;;;;5019991;28;20045;-70
2021/12/07 13:20:31;;;;;;;43.22;19.67;;;4.30;99.90;;;;;;5013807;28;20104;-70
2021/12/07 13:23:17;;;;;;;40.20;18.23;;;4.40;99.90;;;;;;5000522;28;20175;-70
2021/12/07 13:26:02;;;;;;;39.75;17.50;;;4.40;99.90;;;;;;5021492;28;20057;-70
2021/12/07 13:29:00;;;;;;;;;;;4.40;99.90;;;;;;4999006;28;20251;-70
2021/12/07 13:31:51;;;;;;;45.42;19.15;;;4.40;99.90;;;;;;5015266;28;19959;-70
2021/12/07 13:34:38;;;;;;;41.25;18.88;;;4.40;99.90;;;;;;5015394;28;20139;-70
2021/12/07 13:37:42;;;;;;;36.95;16.92;;;4.40;99.90;;;;;;5011254;28;20056;-70
2021/12/07 13:40:27;;;;;;;40.65;18.42;;;4.50;99.90;;;;;;5013784;28;20246;-70
2021/12/07 13:43:32;;;;;;;40.53;18.42;;;4.60;99.90;;;;;;5013913;28;20057;-70
2021/12/07 13:46:21;;;;;;;32.47;16.25;;;4.50;99.90;;;;;;5017790;28;20048;-70
2021/12/07 13:49:11;;;;;;;33.70;14.77;;;4.50;99.90;;;;;;5008729;28;20067;-70
2021/12/07 13:51:56;;;;;;;33.53;14.77;;;4.50;99.90;;;;;;5009011;28;20060;-71
2021/12/07 13:54:46;;;;;;;38.35;16.15;;;4.50;99.90;;;;;;5018149;28;20057;-70
2021/12/07 13:57:35;;;;;;;43.10;15.82;;;4.60;99.90;;;;;;5018011;28;20052;-70
2021/12/07 14:00:30;;;;;;;33.95;14.63;;;4.50;99.90;;;;;;4988778;28;20056;-70
2021/12/07 14:03:15;;;;;;;29.42;14.23;;;4.60;99.90;;;;;;5031578;28;20052;-70
2021/12/07 14:06:06;;;;;;;24.65;14.20;;;4.70;99.90;;;;;;5040078;28;20257;-71
2021/12/07 14:08:51;;;;;;;25.98;13.07;;;4.60;99.90;;;;;;5022863;28;20111;-70
2021/12/07 14:11:38;;;;;;;35.95;16.02;;;4.50;99.90;;;;;;5008971;28;20127;-70
2021/12/07 14:14:25;;;;;;;34.05;20.17;;;4.60;99.90;;;;;;5023973;28;20088;-70
2021/12/07 14:17:11;;;;;;;36.63;22.08;;;4.50;99.90;;;;;;5025823;28;20057;-70
2021/12/07 14:19:56;;;;;;;;;;;4.50;99.90;;;;;;5013734;28;20045;-70
2021/12/07 14:22:46;;;;;;;40.08;19.92;;;4.40;99.90;;;;;;5030429;28;19943;-70
2021/12/07 14:25:32;;;;;;;39.03;15.70;;;4.30;99.90;;;;;;5034439;28;20135;-70
2021/12/07 14:28:30;;;;;;;36.60;16.63;;;4.20;99.90;;;;;;5042388;28;20172;-70
2021/12/07 14:31:28;;;;;;;31.50;17.15;;;4.00;99.90;;;;;;5004635;28;20065;-70
2021/12/07 14:34:32;;;;;;;35.00;15.63;;;3.90;99.90;;;;;;5032857;28;20354;-70
2021/12/07 14:37:18;;;;;;;31.08;15.43;;;3.70;99.90;;;;;;5007521;28;20056;-70
2021/12/07 14:40:06;;;;;;;;;;;3.60;99.90;;;;;;5021925;28;20064;-70
2021/12/07 14:42:52;;;;;;;30.95;13.38;;;3.50;99.90;;;;;;5001489;28;19932;-70
2021/12/07 14:45:37;;;;;;;29.83;15.93;;;3.40;99.90;;;;;;5020336;28;20126;-69
2021/12/07 14:48:23;;;;;;;28.33;13.90;;;3.40;99.90;;;;;;5022327;28;20510;-69
2021/12/07 14:51:22;;;;;;;30.88;15.18;;;3.30;99.90;;;;;;5006028;28;20055;-69
2021/12/07 14:54:08;;;;;;;28.25;15.95;;;3.30;99.90;;;;;;5059088;22;20060;-74
2021/12/07 14:56:54;;;;;;;36.58;18.05;;;3.20;99.90;;;;;;5030478;28;20051;-75
2021/12/07 14:59:41;;;;;;;32.17;16.60;;;3.20;99.90;;;;;;5041049;28;20533;-75
2021/12/07 15:02:31;;;;;;;33.00;17.65;;;3.10;99.90;;;;;;5044312;28;20044;-75
2021/12/07 15:05:16;;;;;;;38.03;21.00;;;3.10;99.90;;;;;;5038418;28;20093;-75
2021/12/07 15:08:03;;;;;;;;;;;3.20;99.90;;;;;;5050023;28;20141;-74
2021/12/07 15:10:48;;;;;;;42.05;22.27;;;3.20;99.90;;;;;;5062304;28;19927;-75
2021/12/07 15:13:34;;;;;;;50.42;27.45;;;3.20;99.90;;;;;;5046991;28;20158;-75
2021/12/07 15:16:20;;;;;;;39.85;20.48;;;3.20;99.90;;;;;;5044053;28;20124;-75
2021/12/07 15:19:06;;;;;;;49.17;23.50;;;3.20;99.90;;;;;;5021803;28;20044;-75
2021/12/07 15:21:53;;;;;;;57.83;30.75;;;3.20;99.90;;;;;;5035633;28;20098;-74
2021/12/07 15:24:38;;;;;;;52.35;25.27;;;2.90;99.90;;;;;;5052816;28;20129;-75
2021/12/07 15:27:25;;;;;;;79.57;36.17;;;2.80;99.90;;;;;;5058717;28;20048;-75
2021/12/07 15:30:10;;;;;;;110.80;49.75;;;2.80;99.90;;;;;;5051166;28;20074;-75
2021/12/07 15:32:55;;;;;;;;;;;2.70;99.90;;;;;;5050974;28;20422;-75
2021/12/07 15:35:43;;;;;;;50.78;23.05;;;2.70;99.90;;;;;;5031168;28;19927;-75
2021/12/07 15:38:29;;;;;;;44.95;23.38;;;2.50;99.90;;;;;;5044261;28;20056;-74
2021/12/07 15:41:14;;;;;;;;;;;2.30;99.90;;;;;;5030622;28;20075;-74
2021/12/07 15:44:00;;;;;;;34.70;16.37;;;2.20;99.90;;;;;;5029920;28;20302;-74
2021/12/07 15:46:49;;;;;;;34.85;15.48;;;2.20;99.90;;;;;;5044408;28;20048;-74
2021/12/07 15:49:38;;;;;;;38.42;18.05;;;2.20;99.90;;;;;;5046105;28;20334;-74
2021/12/07 15:52:32;;;;;;;88.28;48.28;;;2.10;99.90;;;;;;5029943;28;20553;-75
2021/12/07 15:55:26;;;;;;;39.33;20.15;;;2.00;99.90;;;;;;5038951;28;20597;-75
2021/12/07 15:58:20;;;;;;;33.42;16.88;;;1.90;99.90;;;;;;5037229;28;20056;-74
2021/12/07 16:01:06;;;;;;;24.80;12.40;;;1.90;99.90;;;;;;5043984;28;20091;-74
2021/12/07 16:03:52;;;;;;;26.25;12.13;;;1.80;99.90;;;;;;5019586;28;20533;-74
2021/12/07 16:06:37;;;;;;;29.00;17.27;;;1.80;99.90;;;;;;5024535;28;20395;-74
2021/12/07 16:09:31;;;;;;;33.97;20.50;;;1.80;99.90;;;;;;5010272;28;20065;-74